Time;durP1;ratioP1;P1;durP2;ratioP2;P2;SDS_P1;SDS_P2;PMS_P1;PMS_P2;Temp;Humidity;BMP_temperature;BMP_pressure;BME280_temperature;BME280_humidity;BME280_pressure;Samples;Min_cycle;Max_cycle;Signal;HPM_P1;HPM_P2
2022/11/05 00:11:02;;;;;;;;;;;;;;;11.58;70.31;98817.31;5265583;28;19927;-70
2022/11/05 00:17:00;;;;;;;;;;;;;;;11.38;70.90;98822.78;5279664;28;19934;-70
2022/11/05 00:19:50;;;;;;;;;;;;;;;11.28;70.82;98822.03;5285929;28;19969;-70
2022/11/05 00:25:59;;;;;;;;;;;;;;;11.44;70.71;98829.31;5270846;28;20004;-70
2022/11/05 00:28:49;;;;;;;;;;;;;;;11.47;70.61;98835.16;5257934;28;19950;-70
2022/11/05 00:31:39;;;;;;;;;;;;;;;11.29;70.98;98837.84;5249683;28;20616;-71
2022/11/05 00:34:29;;;;;;;;;;;;;;;11.44;70.34;98832.81;5264893;28;20049;-69
2022/11/05 00:37:19;;;;;;;;;;;;;;;11.48;70.24;98839.47;5264871;28;19935;-70
2022/11/05 00:40:10;;;;;;;;;;;;;;;11.38;70.08;98835.25;5265225;28;19966;-69
2022/11/05 00:46:09;;;;;;;;;;;;;;;11.44;69.99;98842.59;5252927;28;19931;-71
2022/11/05 00:52:54;;;;;;;;;;;;;;;11.46;70.34;98848.59;5265029;28;19963;-70
2022/11/05 00:55:33;;;;;;;;;;;;;;;11.44;70.44;98845.25;5264613;28;19939;-70
2022/11/05 00:58:23;;;;;;;;;;;;;;;11.38;70.08;98853.81;5256137;28;20419;-71
2022/11/05 01:01:13;;;;;;;;;;;;;;;11.32;70.48;98849.13;5278361;28;19931;-71
2022/11/05 01:04:03;;;;;;;;;;;;;;;11.28;70.72;98852.06;5247988;28;19927;-70
2022/11/05 01:06:53;;;;;;;;;;;;;;;11.21;70.66;98853.66;5248031;28;20431;-69
2022/11/05 01:09:43;;;;;;;;;;;;;;;11.11;70.87;98865.34;5247621;28;19958;-69
2022/11/05 01:12:33;;;;;;;;;;;;;;;10.97;71.13;98872.00;5247463;28;19931;-70
2022/11/05 01:15:23;;;;;;;;;;;;;;;11.08;70.39;98882.41;5280424;28;19931;-70
2022/11/05 01:18:13;;;;;;;;;;;;;;;11.28;70.59;98881.28;5289260;28;19972;-71
2022/11/05 01:21:09;;;;;;;;;;;;;;;11.31;71.14;98876.66;5289165;28;20083;-72
2022/11/05 01:23:59;;;;;;;;;;;;;;;11.13;71.27;98884.63;5273871;28;19926;-71
2022/11/05 01:26:48;;;;;;;;;;;;;;;11.26;69.94;98880.59;5289238;28;19927;-71
2022/11/05 01:29:38;;;;;;;;;;;;;;;11.10;71.01;98887.56;5275570;28;19949;-71
2022/11/05 01:32:28;;;;;;;;;;;;;;;11.08;71.47;98889.53;5246735;28;20298;-70
2022/11/05 01:35:18;;;;;;;;;;;;;;;11.19;70.99;98890.16;5247860;28;19927;-71
2022/11/05 01:38:08;;;;;;;;;;;;;;;11.31;70.54;98889.94;5252405;28;20065;-70
2022/11/05 01:40:58;;;;;;;;;;;;;;;11.37;70.27;98886.69;5267734;28;19927;-72
2022/11/05 01:43:53;;;;;;;;;;;;;;;11.14;70.74;98852.59;5277262;28;19927;-71
2022/11/05 01:46:45;;;;;;;;;;;;;;;11.36;70.34;98885.84;5267727;28;19973;-71
2022/11/05 01:49:35;;;;;;;;;;;;;;;11.25;71.01;98894.84;5252482;28;19942;-70
2022/11/05 01:52:25;;;;;;;;;;;;;;;11.37;70.40;98889.31;5267495;28;19927;-70
2022/11/05 01:55:18;;;;;;;;;;;;;;;11.34;70.42;98893.13;5268032;28;19927;-69
2022/11/05 01:58:11;;;;;;;;;;;;;;;11.42;70.54;98897.66;5256625;28;19973;-70
2022/11/05 02:01:01;;;;;;;;;;;;;;;11.41;70.38;98902.13;5270163;28;19931;-70
2022/11/05 02:03:54;;;;;;;;;;;;;;;11.31;70.90;98903.19;5267483;28;19966;-69
2022/11/05 02:06:45;;;;;;;;;;;;;;;11.28;69.93;98905.16;5267434;28;20016;-70
2022/11/05 02:09:43;;;;;;;;;;;;;;;11.39;70.26;98912.09;5273873;28;19976;-69
2022/11/05 02:12:35;;;;;;;;;;;;;;;11.31;70.29;98919.13;5265221;28;20528;-70
2022/11/05 02:15:31;;;;;;;;;;;;;;;11.14;71.30;98912.81;5267151;28;19927;-70
2022/11/05 02:18:37;;;;;;;;;;;;;;;11.19;71.01;98910.53;5267078;28;19927;-69
2022/11/05 02:21:57;;;;;;;;;;;;;;;11.07;71.06;98911.75;5267211;28;20598;-70
2022/11/05 02:24:55;;;;;;;;;;;;;;;11.33;70.75;98922.47;5226091;28;20010;-70
2022/11/05 02:27:51;;;;;;;;;;;;;;;11.34;70.94;98916.19;5287902;28;19926;-70
2022/11/05 02:30:40;;;;;;;;;;;;;;;11.21;70.91;98917.38;5287826;28;19926;-69
2022/11/05 02:33:30;;;;;;;;;;;;;;;11.35;70.57;98921.31;5272632;28;20427;-69
2022/11/05 02:36:39;;;;;;;;;;;;;;;11.38;70.75;98922.84;5263065;28;20053;-70
2022/11/05 02:39:29;;;;;;;;;;;;;;;11.35;70.55;98928.44;5272474;28;20309;-70
2022/11/05 02:42:27;;;;;;;;;;;;;;;11.37;71.49;98923.84;5266441;28;19920;-71
2022/11/05 02:45:39;;;;;;;;;;;;;;;11.27;70.55;98927.38;5251420;28;20486;-68
2022/11/05 02:48:49;;;;;;;;;;;;;;;11.34;71.75;98929.44;5266763;28;20006;-71
2022/11/05 02:51:43;;;;;;;;;;;;;;;11.37;71.09;98929.16;5255525;28;19934;-71
2022/11/05 02:54:42;;;;;;;;;;;;;;;11.43;70.81;98928.56;5277914;28;19972;-70
2022/11/05 02:57:34;;;;;;;;;;;;;;;11.36;70.71;98938.09;5287328;28;20049;-69
2022/11/05 03:00:42;;;;;;;;;;;;;;;11.53;70.37;98934.63;5277360;28;19927;-69
2022/11/05 03:03:38;;;;;;;;;;;;;;;11.50;70.64;98934.91;5283146;28;19946;-69
2022/11/05 03:06:28;;;;;;;;;;;;;;;11.50;70.46;98929.63;5287933;28;19943;-70
2022/11/05 03:09:24;;;;;;;;;;;;;;;11.46;70.27;98928.25;5271544;28;19942;-70
2022/11/05 03:12:17;;;;;;;;;;;;;;;11.47;70.70;98913.97;5286950;28;20359;-70
2022/11/05 03:15:14;;;;;;;;;;;;;;;11.34;70.73;98927.63;5273969;28;19950;-71
2022/11/05 03:18:07;;;;;;;;;;;;;;;11.40;71.23;98928.84;5271299;28;19927;-69
2022/11/05 03:21:07;;;;;;;;;;;;;;;11.42;70.89;98932.16;5270788;28;20060;-71
2022/11/05 03:24:09;;;;;;;;;;;;;;;11.47;70.74;98943.19;5271541;28;20373;-70
2022/11/05 03:27:01;;;;;;;;;;;;;;;11.41;71.23;98941.13;5286960;28;20012;-70
2022/11/05 03:29:57;;;;;;;;;;;;;;;11.46;70.55;98939.69;5271961;28;19927;-70
2022/11/05 03:32:51;;;;;;;;;;;;;;;11.44;70.67;98946.13;5266094;28;20073;-68
2022/11/05 03:35:51;;;;;;;;;;;;;;;11.52;71.34;98949.72;5265717;28;19924;-70
2022/11/05 03:38:45;;;;;;;;;;;;;;;11.51;70.84;98955.16;5265638;28;20020;-70
2022/11/05 03:41:37;;;;;;;;;;;;;;;11.53;70.98;98956.69;5264514;28;19981;-69
2022/11/05 03:44:30;;;;;;;;;;;;;;;11.43;71.35;98957.75;5274076;28;19927;-70
2022/11/05 03:47:23;;;;;;;;;;;;;;;11.41;72.30;98963.19;5250421;28;20025;-69
2022/11/05 03:50:19;;;;;;;;;;;;;;;11.46;71.60;98970.72;5265469;28;19920;-69
2022/11/05 03:53:20;;;;;;;;;;;;;;;11.44;72.24;98970.88;5265130;28;19935;-70
2022/11/05 03:56:14;;;;;;;;;;;;;;;11.54;71.92;98973.47;5264301;28;19998;-72
2022/11/05 03:59:05;;;;;;;;;;;;;;;11.43;71.88;98974.50;5274937;28;20655;-70
2022/11/05 04:01:55;;;;;;;;;;;;;;;11.50;71.43;98980.06;5286468;28;19953;-70
2022/11/05 04:04:46;;;;;;;;;;;;;;;11.55;71.57;98987.56;5271698;28;20033;-70
2022/11/05 04:13:55;;;;;;;;;;;;;;;11.46;72.12;98998.13;5253347;28;20057;-70
2022/11/05 04:26:12;;;;;;;;;;;;;;;11.37;72.18;99000.81;5266365;28;20024;-71
2022/11/05 04:32:11;;;;;;;;;;;;;;;11.28;73.10;99011.31;5286028;28;19943;-72
2022/11/05 04:35:01;;;;;;;;;;;;;;;11.36;72.25;99018.56;5290546;28;19943;-71
2022/11/05 04:37:51;;;;;;;;;;;;;;;11.24;73.02;99020.56;5248024;28;20057;-70
2022/11/05 04:40:42;;;;;;;;;;;;;;;11.35;72.34;99018.72;5267936;28;20052;-71
2022/11/05 04:43:32;;;;;;;;;;;;;;;11.44;72.14;99026.63;5283485;28;19947;-70
2022/11/05 04:46:22;;;;;;;;;;;;;;;11.30;73.11;99024.47;5290425;28;20004;-70
2022/11/05 04:49:11;;;;;;;;;;;;;;;11.40;72.58;99030.56;5289989;28;20023;-72
2022/11/05 04:52:01;;;;;;;;;;;;;;;11.46;72.00;99035.28;5289854;28;19927;-71
2022/11/05 04:54:51;;;;;;;;;;;;;;;11.50;72.04;99030.50;5279967;28;20027;-71
2022/11/05 04:57:41;;;;;;;;;;;;;;;11.35;72.47;99034.63;5268075;28;19993;-71
2022/11/05 05:00:31;;;;;;;;;;;;;;;11.18;72.64;99031.78;5278245;28;20457;-69
2022/11/05 05:03:21;;;;;;;;;;;;;;;11.12;73.50;99035.00;5276205;28;19942;-71
2022/11/05 05:06:11;;;;;;;;;;;;;;;10.85;74.23;99037.63;5288041;28;19974;-70
2022/11/05 05:09:01;;;;;;;;;;;;;;;11.29;73.07;99039.56;5289472;28;19927;-71
2022/11/05 05:11:51;;;;;;;;;;;;;;;11.22;73.63;99042.94;5289597;28;19926;-70
2022/11/05 05:14:40;;;;;;;;;;;;;;;11.19;72.85;99049.41;5273591;28;19944;-70
2022/11/05 05:17:30;;;;;;;;;;;;;;;11.14;73.06;99048.97;5264396;28;20446;-72
2022/11/05 05:23:29;;;;;;;;;;;;;;;11.25;73.47;99054.09;5247645;28;19920;-70
2022/11/05 05:26:18;;;;;;;;;;;;;;;11.40;72.27;99059.75;5247346;28;19920;-72
2022/11/05 05:29:09;;;;;;;;;;;;;;;11.33;72.48;99065.81;5247110;28;20073;-71
2022/11/05 05:31:59;;;;;;;;;;;;;;;11.16;73.40;99060.31;5246921;28;20074;-71
2022/11/05 05:34:49;;;;;;;;;;;;;;;11.43;72.72;99066.59;5274330;28;19947;-70
2022/11/05 05:37:39;;;;;;;;;;;;;;;11.43;71.75;99066.59;5275521;28;19951;-71
2022/11/05 05:40:29;;;;;;;;;;;;;;;11.22;72.89;99072.97;5267629;28;19920;-71
2022/11/05 05:43:18;;;;;;;;;;;;;;;11.32;72.45;99072.91;5268078;28;19920;-71
2022/11/05 05:46:10;;;;;;;;;;;;;;;11.27;72.52;99075.19;5266961;28;19920;-72
2022/11/05 05:49:00;;;;;;;;;;;;;;;11.32;73.05;99085.38;5275575;28;20072;-72
2022/11/05 05:51:50;;;;;;;;;;;;;;;11.32;72.65;99075.56;5252177;28;19926;-71
2022/11/05 05:54:40;;;;;;;;;;;;;;;10.85;73.91;99085.38;5267164;28;20048;-71
2022/11/05 05:57:32;;;;;;;;;;;;;;;11.15;72.27;99079.00;5267673;28;19920;-71
2022/11/05 06:00:22;;;;;;;;;;;;;;;10.93;73.53;99085.53;5252577;28;20390;-70
2022/11/05 06:03:12;;;;;;;;;;;;;;;10.96;73.57;99099.34;5277936;28;20350;-71
2022/11/05 06:06:03;;;;;;;;;;;;;;;11.01;73.46;99104.19;5289140;28;20300;-70
2022/11/05 06:08:55;;;;;;;;;;;;;;;11.19;73.38;99106.91;5288230;28;20116;-70
2022/11/05 06:11:45;;;;;;;;;;;;;;;10.55;75.09;99111.94;5288316;28;19927;-70
2022/11/05 06:14:34;;;;;;;;;;;;;;;10.65;74.41;99114.59;5288453;28;20513;-70
2022/11/05 06:17:24;;;;;;;;;;;;;;;11.04;73.04;99111.88;5268627;28;19926;-70
2022/11/05 06:20:14;;;;;;;;;;;;;;;11.02;72.65;99119.13;5278385;28;19951;-70
2022/11/05 06:23:04;;;;;;;;;;;;;;;11.05;71.85;99116.19;5267280;28;20002;-71
2022/11/05 06:25:57;;;;;;;;;;;;;;;10.88;72.69;99123.06;5267196;28;20563;-71
2022/11/05 06:28:47;;;;;;;;;;;;;;;10.96;72.94;99125.00;5236649;28;19920;-70
2022/11/05 06:31:37;;;;;;;;;;;;;;;10.99;72.09;99130.88;5273666;28;19959;-70
2022/11/05 06:34:27;;;;;;;;;;;;;;;11.03;72.00;99140.22;5266525;28;19988;-71
2022/11/05 06:37:17;;;;;;;;;;;;;;;11.00;71.98;99140.50;5266734;28;19973;-71
2022/11/05 06:40:07;;;;;;;;;;;;;;;10.88;72.64;99141.63;5264137;28;20385;-70
2022/11/05 06:42:57;;;;;;;;;;;;;;;11.00;72.55;99142.31;5251552;28;20000;-70
2022/11/05 06:45:47;;;;;;;;;;;;;;;11.02;72.34;99143.00;5278854;28;19927;-69
2022/11/05 06:48:37;;;;;;;;;;;;;;;11.10;72.31;99150.28;5287688;28;19930;-71
2022/11/05 06:51:27;;;;;;;;;;;;;;;11.16;72.10;99152.31;5287571;28;19920;-70
2022/11/05 06:54:17;;;;;;;;;;;;;;;11.22;72.77;99165.03;5267089;28;19981;-72
2022/11/05 06:57:08;;;;;;;;;;;;;;;11.11;73.64;99168.69;5274039;28;19931;-70
2022/11/05 06:59:58;;;;;;;;;;;;;;;11.19;73.00;99176.78;5250888;28;19926;-70
2022/11/05 07:02:54;;;;;;;;;;;;;;;11.29;72.36;99182.03;5259202;28;19973;-70
2022/11/05 07:05:46;;;;;;;;;;;;;;;11.18;72.21;99180.41;5245718;28;19942;-71
2022/11/05 07:08:36;;;;;;;;;;;;;;;11.31;72.74;99188.06;5245470;28;20057;-70
2022/11/05 07:11:26;;;;;;;;;;;;;;;11.35;71.74;99202.72;5230228;28;19928;-69
2022/11/05 07:14:17;;;;;;;;;;;;;;;11.32;72.31;99199.50;5268430;28;19927;-70
2022/11/05 07:17:06;;;;;;;;;;;;;;;11.09;72.58;99206.94;5282181;28;20490;-70
2022/11/05 07:19:56;;;;;;;;;;;;;;;11.04;72.27;99218.84;5271464;28;19932;-70
2022/11/05 07:22:46;;;;;;;;;;;;;;;11.39;71.02;99219.19;5278877;28;19974;-71
2022/11/05 07:25:37;;;;;;;;;;;;;;;10.92;72.99;99219.97;5240234;28;20002;-71
2022/11/05 07:28:26;;;;;;;;;;;;;;;11.31;72.48;99227.03;5269098;28;19927;-71
2022/11/05 07:31:16;;;;;;;;;;;;;;;11.32;71.75;99232.19;5251615;28;19920;-71
2022/11/05 07:34:06;;;;;;;;;;;;;;;11.11;72.00;99235.03;5265735;28;19934;-71
2022/11/05 07:36:56;;;;;;;;;;;;;;;11.33;71.97;99241.03;5265043;28;19927;-71
2022/11/05 07:39:46;;;;;;;;;;;;;;;11.27;71.98;99243.25;5264242;28;19927;-70
2022/11/05 07:42:35;;;;;;;;;;;;;;;11.04;72.86;99244.53;5274128;28;19920;-72
2022/11/05 07:45:26;;;;;;;;;;;;;;;11.05;72.43;99249.69;5265296;28;19920;-71
2022/11/05 07:48:16;;;;;;;;;;;;;;;11.09;72.89;99252.91;5250079;28;19919;-71
2022/11/05 07:51:06;;;;;;;;;;;;;;;11.20;73.00;99260.72;5265242;28;19931;-72
2022/11/05 07:53:56;;;;;;;;;;;;;;;11.32;72.23;99266.72;5265097;28;19927;-71
2022/11/05 07:56:46;;;;;;;;;;;;;;;11.21;72.53;99262.41;5271990;28;19931;-73
2022/11/05 07:59:36;;;;;;;;;;;;;;;11.44;72.09;99278.03;5286127;28;19931;-70
2022/11/05 08:02:26;;;;;;;;;;;;;;;11.38;71.87;99275.94;5271376;28;20310;-73
2022/11/05 08:05:17;;;;;;;;;;;;;;;10.93;72.88;99281.84;5286727;28;19926;-70
2022/11/05 08:08:07;;;;;;;;;;;;;;;11.02;72.73;99275.66;5260096;28;19926;-72
2022/11/05 08:11:01;;;;;;;;;;;;;;;11.13;72.14;99277.38;5274605;28;19928;-70
2022/11/05 08:13:51;;;;;;;;;;;;;;;10.55;74.85;99286.94;5269968;28;20072;-70
2022/11/05 08:16:41;;;;;;;;;;;;;;;10.62;74.59;99289.03;5246927;28;19927;-69
2022/11/05 08:19:31;;;;;;;;;;;;;;;10.99;73.28;99287.44;5269255;28;19919;-70
2022/11/05 08:22:21;;;;;;;;;;;;;;;11.08;72.51;99285.72;5257347;28;20313;-70
2022/11/05 08:25:11;;;;;;;;;;;;;;;10.45;73.70;99290.53;5269813;28;20010;-72
2022/11/05 08:28:04;;;;;;;;;;;;;;;10.63;73.87;99291.56;5270010;28;19926;-71
2022/11/05 08:30:54;;;;;;;;;;;;;;;10.77;73.32;99296.47;5266141;28;19953;-72
2022/11/05 08:33:45;;;;;;;;;;;;;;;10.25;74.67;99303.69;5253705;28;19969;-73
2022/11/05 08:36:35;;;;;;;;;;;;;;;10.92;72.89;99298.72;5276681;28;19931;-71
2022/11/05 08:39:24;;;;;;;;;;;;;;;11.06;71.73;99308.94;5245374;28;19927;-70
2022/11/05 08:42:14;;;;;;;;;;;;;;;11.13;71.50;99310.06;5243151;28;19994;-72
2022/11/05 08:45:04;;;;;;;;;;;;;;;10.78;71.75;99311.41;5268217;28;19924;-72
2022/11/05 08:48:01;;;;;;;;;;;;;;;10.33;72.43;99314.50;5269068;28;19919;-70
2022/11/05 08:50:51;;;;;;;;;;;;;;;10.48;73.16;99317.63;5276120;28;20061;-71
2022/11/05 08:53:41;;;;;;;;;;;;;;;10.35;73.29;99320.50;5261833;28;20045;-70
2022/11/05 08:56:31;;;;;;;;;;;;;;;10.78;71.86;99331.78;5260568;28;19969;-71
2022/11/05 08:59:21;;;;;;;;;;;;;;;10.97;70.85;99336.28;5272232;28;19942;-70
2022/11/05 09:02:11;;;;;;;;;;;;;;;10.12;73.10;99329.59;5273605;28;19977;-71
2022/11/05 09:05:02;;;;;;;;;;;;;;;10.56;72.83;99332.84;5271270;28;19920;-71
2022/11/05 09:07:52;;;;;;;;;;;;;;;10.79;72.05;99334.31;5274778;28;20420;-71
2022/11/05 09:10:48;;;;;;;;;;;;;;;10.77;72.58;99341.56;5292344;28;20470;-71
2022/11/05 09:13:39;;;;;;;;;;;;;;;10.68;72.17;99345.03;5286555;28;19932;-71
2022/11/05 09:16:31;;;;;;;;;;;;;;;10.76;72.83;99344.34;5284582;28;19920;-71
2022/11/05 09:19:21;;;;;;;;;;;;;;;10.14;73.17;99346.19;5289534;28;19920;-71
2022/11/05 09:22:11;;;;;;;;;;;;;;;9.92;74.04;99349.00;5288722;28;19927;-71
2022/11/05 09:25:01;;;;;;;;;;;;;;;10.52;72.68;99353.47;5272150;28;20040;-71
2022/11/05 09:27:51;;;;;;;;;;;;;;;10.78;72.59;99353.84;5248348;28;19935;-71
2022/11/05 09:30:43;;;;;;;;;;;;;;;10.38;72.86;99355.69;5271457;28;19942;-71
2022/11/05 09:33:33;;;;;;;;;;;;;;;10.68;72.75;99358.28;5278821;28;19947;-71
2022/11/05 09:36:23;;;;;;;;;;;;;;;10.75;72.16;99356.75;5266715;28;20000;-71
2022/11/05 09:39:13;;;;;;;;;;;;;;;11.00;71.04;99360.72;5266459;28;19928;-72
2022/11/05 09:42:05;;;;;;;;;;;;;;;11.07;70.78;99357.53;5263518;28;19927;-70
2022/11/05 09:44:58;;;;;;;;;;;;;;;9.83;74.84;99356.78;5266282;28;19931;-71
2022/11/05 09:47:51;;;;;;;;;;;;;;;9.55;75.68;99357.41;5273707;28;19927;-71
2022/11/05 09:50:44;;;;;;;;;;;;;;;10.05;74.22;99349.63;5276216;28;19992;-70
2022/11/05 09:53:39;;;;;;;;;;;;;;;10.61;72.92;99351.00;5248538;28;20016;-70
2022/11/05 09:56:30;;;;;;;;;;;;;;;10.53;72.05;99357.00;5270612;28;19931;-71
2022/11/05 09:59:21;;;;;;;;;;;;;;;10.84;71.84;99363.06;5270319;28;20429;-71
2022/11/05 10:02:22;;;;;;;;;;;;;;;10.56;72.27;99376.13;5257687;28;19927;-70
2022/11/05 10:05:13;;;;;;;;;;;;;;;10.21;72.31;99380.97;5271000;28;19928;-71
2022/11/05 10:08:06;;;;;;;;;;;;;;;10.25;72.48;99388.50;5272222;28;20046;-70
2022/11/05 10:11:08;;;;;;;;;;;;;;;10.73;72.35;99389.72;5271192;28;20420;-70
2022/11/05 10:14:04;;;;;;;;;;;;;;;10.78;71.63;99398.09;5271110;28;19930;-70
2022/11/05 10:16:58;;;;;;;;;;;;;;;10.19;73.70;99404.94;5268315;28;19969;-69
2022/11/05 10:19:54;;;;;;;;;;;;;;;10.68;71.68;99403.38;5275521;28;19993;-70
2022/11/05 10:22:44;;;;;;;;;;;;;;;10.00;74.20;99415.41;5269987;28;19931;-69
2022/11/05 10:25:40;;;;;;;;;;;;;;;10.44;73.58;99408.16;5256832;28;19927;-69
2022/11/05 10:28:31;;;;;;;;;;;;;;;10.98;71.16;99383.91;5271537;28;20533;-69
2022/11/05 10:31:22;;;;;;;;;;;;;;;10.99;71.58;99413.91;5275547;28;19927;-69
2022/11/05 10:34:12;;;;;;;;;;;;;;;10.57;72.94;99419.38;5258519;28;19943;-70
2022/11/05 10:37:03;;;;;;;;;;;;;;;11.11;71.33;99427.94;5268736;28;19924;-69
2022/11/05 10:39:53;;;;;;;;;;;;;;;11.12;71.23;99418.97;5276180;28;19964;-70
2022/11/05 10:42:49;;;;;;;;;;;;;;;11.61;70.52;99426.00;5277162;28;19919;-70
2022/11/05 10:45:51;;;;;;;;;;;;;;;11.33;69.99;99421.53;5273662;28;19957;-70
2022/11/05 10:49:05;;;;;;;;;;;;;;;10.87;71.65;99418.50;5277202;28;20312;-70
2022/11/05 10:51:56;;;;;;;;;;;;;;;11.13;69.86;99426.81;5272960;28;19931;-70
2022/11/05 10:54:46;;;;;;;;;;;;;;;11.39;69.62;99420.97;5250178;28;19992;-70
2022/11/05 10:57:37;;;;;;;;;;;;;;;11.38;70.13;99421.94;5267360;28;20412;-70
2022/11/05 11:00:27;;;;;;;;;;;;;;;11.66;69.10;99429.09;5271458;28;19927;-70
2022/11/05 11:03:29;;;;;;;;;;;;;;;10.75;72.32;99430.19;5268866;28;20293;-70
2022/11/05 11:06:26;;;;;;;;;;;;;;;10.85;70.86;99427.56;5272628;28;20021;-70
2022/11/05 11:09:21;;;;;;;;;;;;;;;11.02;72.58;99429.56;5276239;28;19927;-70
2022/11/05 11:12:11;;;;;;;;;;;;;;;11.81;69.67;99431.31;5272396;28;19926;-70
2022/11/05 11:15:26;;;;;;;;;;;;;;;12.00;68.63;99431.34;5276573;28;20707;-70
2022/11/05 11:18:25;;;;;;;;;;;;;;;11.73;69.73;99434.69;5274103;28;19927;-70
2022/11/05 11:21:18;;;;;;;;;;;;;;;10.93;71.20;99435.72;5245722;28;19930;-71
2022/11/05 11:24:18;;;;;;;;;;;;;;;11.94;68.66;99434.56;5265831;28;19924;-70
2022/11/05 11:27:21;;;;;;;;;;;;;;;12.07;67.53;99436.94;5269277;28;19993;-71
2022/11/05 11:30:15;;;;;;;;;;;;;;;11.81;67.46;99436.63;5273192;28;19937;-70
2022/11/05 11:33:07;;;;;;;;;;;;;;;11.72;67.25;99438.31;5270062;28;19931;-72
2022/11/05 11:35:58;;;;;;;;;;;;;;;12.15;68.24;99437.91;5272045;28;19942;-71
2022/11/05 11:38:49;;;;;;;;;;;;;;;12.43;67.29;99432.63;5272974;28;19943;-71
2022/11/05 11:41:40;;;;;;;;;;;;;;;12.62;66.04;99429.91;5271370;28;19947;-70
2022/11/05 11:44:34;;;;;;;;;;;;;;;12.69;66.75;99430.16;5273697;28;19926;-70
2022/11/05 11:47:26;;;;;;;;;;;;;;;12.45;66.61;99436.84;5273249;28;19965;-70
2022/11/05 11:50:34;;;;;;;;;;;;;;;12.00;66.70;99428.69;5279514;28;20080;-71
2022/11/05 11:53:26;;;;;;;;;;;;;;;12.07;66.88;99437.75;5243981;28;19992;-70
2022/11/05 11:56:18;;;;;;;;;;;;;;;12.40;66.32;99439.09;5257784;28;19996;-70
2022/11/05 11:59:14;;;;;;;;;;;;;;;12.03;66.54;99439.03;5271517;28;19930;-68
2022/11/05 12:02:23;;;;;;;;;;;;;;;11.86;66.91;99439.75;5266975;28;20585;-71
2022/11/05 12:05:23;;;;;;;;;;;;;;;11.64;67.86;99436.38;5269622;28;19931;-71
2022/11/05 12:08:21;;;;;;;;;;;;;;;12.18;66.12;99432.28;5273650;28;19982;-72
2022/11/05 12:11:17;;;;;;;;;;;;;;;12.23;66.14;99429.19;5254705;28;20404;-74
2022/11/05 12:14:24;;;;;;;;;;;;;;;12.36;65.24;99429.72;5271904;28;19924;-75
2022/11/05 12:17:27;;;;;;;;;;;;;;;12.54;66.57;99432.44;5258468;28;19935;-74
2022/11/05 12:20:17;;;;;;;;;;;;;;;12.72;64.75;99434.38;5267212;28;20025;-75
2022/11/05 12:23:19;;;;;;;;;;;;;;;12.13;66.25;99420.41;5260492;28;19973;-73
2022/11/05 12:26:18;;;;;;;;;;;;;;;12.52;65.43;99422.97;5248350;28;19927;-73
2022/11/05 12:29:27;;;;;;;;;;;;;;;12.77;65.00;99418.78;5270942;28;19931;-70
2022/11/05 12:32:25;;;;;;;;;;;;;;;12.52;64.97;99415.00;5260146;28;19927;-69
2022/11/05 12:35:27;;;;;;;;;;;;;;;12.65;65.33;99413.66;5272031;28;20309;-70
2022/11/05 12:38:45;;;;;;;;;;;;;;;12.52;64.22;99412.31;5254215;28;20321;-73
2022/11/05 12:41:41;;;;;;;;;;;;;;;13.01;62.91;99411.06;5271483;28;20008;-70
2022/11/05 12:44:37;;;;;;;;;;;;;;;12.63;63.83;99410.31;5251555;28;19943;-70
2022/11/05 12:47:43;;;;;;;;;;;;;;;12.56;62.95;99417.19;5233428;28;20381;-70
2022/11/05 12:50:44;;;;;;;;;;;;;;;12.67;62.66;99417.00;5260050;28;19920;-72
2022/11/05 12:53:48;;;;;;;;;;;;;;;13.01;62.44;99420.88;5248841;28;19973;-70
2022/11/05 12:56:42;;;;;;;;;;;;;;;12.79;61.59;99422.97;5274622;28;20277;-71
2022/11/05 12:59:32;;;;;;;;;;;;;;;12.90;62.74;99425.44;5272530;28;19969;-72
2022/11/05 13:02:25;;;;;;;;;;;;;;;13.06;60.95;99426.63;5240603;28;19927;-71
2022/11/05 13:05:18;;;;;;;;;;;;;;;13.14;60.11;99424.91;5264020;28;19931;-71
2022/11/05 13:08:21;;;;;;;;;;;;;;;13.08;62.05;99432.66;5261627;28;20013;-74
2022/11/05 13:11:15;;;;;;;;;;;;;;;12.88;61.83;99427.44;5258056;28;19920;-72
2022/11/05 13:14:10;;;;;;;;;;;;;;;12.76;61.61;99427.75;5263272;28;19927;-73
2022/11/05 13:17:00;;;;;;;;;;;;;;;12.74;62.67;99429.72;5245444;28;19927;-73
2022/11/05 13:19:58;;;;;;;;;;;;;;;12.85;63.13;99430.38;5267176;28;19985;-71
2022/11/05 13:22:51;;;;;;;;;;;;;;;12.70;63.55;99432.66;5265398;28;19970;-72
2022/11/05 13:25:48;;;;;;;;;;;;;;;12.57;62.40;99434.00;5254177;28;19926;-71
2022/11/05 13:28:57;;;;;;;;;;;;;;;12.51;62.73;99427.41;5270910;28;20016;-73
2022/11/05 13:31:53;;;;;;;;;;;;;;;12.75;62.15;99436.72;5260096;28;20285;-72
2022/11/05 13:34:43;;;;;;;;;;;;;;;12.65;62.57;99429.63;5261601;28;19926;-72
2022/11/05 13:40:54;;;;;;;;;;;;;;;12.76;61.69;99441.06;5281308;28;20297;-71
2022/11/05 13:44:10;;;;;;;;;;;;;;;12.82;61.50;99443.16;5267425;28;19982;-73
2022/11/05 13:47:03;;;;;;;;;;;;;;;12.68;62.02;99442.63;5275373;28;19973;-73
2022/11/05 13:50:02;;;;;;;;;;;;;;;12.61;62.92;99448.66;5254262;28;19942;-70
2022/11/05 13:53:11;;;;;;;;;;;;;;;12.71;62.17;99438.81;5273777;28;19974;-70
2022/11/05 13:56:08;;;;;;;;;;;;;;;12.63;62.84;99442.22;5263457;28;19927;-70
2022/11/05 13:59:19;;;;;;;;;;;;;;;12.68;62.88;99441.78;5251814;28;20008;-70
2022/11/05 14:02:20;;;;;;;;;;;;;;;12.43;62.41;99445.94;5264099;28;20056;-71
2022/11/05 14:05:23;;;;;;;;;;;;;;;12.64;62.26;99443.88;5262237;28;20389;-71
2022/11/05 14:08:18;;;;;;;;;;;;;;;12.60;62.66;99439.03;5261708;28;19927;-70
2022/11/05 14:11:14;;;;;;;;;;;;;;;12.62;62.18;99437.06;5259869;28;20117;-72
2022/11/05 14:14:06;;;;;;;;;;;;;;;11.94;61.55;99447.84;5279314;28;20009;-70
2022/11/05 14:17:06;;;;;;;;;;;;;;;11.60;62.30;99448.25;5273268;28;20048;-71
2022/11/05 14:20:02;;;;;;;;;;;;;;;11.40;62.17;99442.09;5251612;28;20561;-72
2022/11/05 14:22:52;;;;;;;;;;;;;;;11.72;61.75;99441.81;5261863;28;19930;-71
2022/11/05 14:25:42;;;;;;;;;;;;;;;12.04;61.64;99443.34;5258477;28;20431;-71
2022/11/05 14:28:35;;;;;;;;;;;;;;;11.77;62.69;99446.72;5278799;28;20002;-71
2022/11/05 14:31:30;;;;;;;;;;;;;;;12.07;61.85;99442.25;5261557;28;19995;-72
2022/11/05 14:34:42;;;;;;;;;;;;;;;12.16;61.43;99447.53;5272828;28;20379;-71
2022/11/05 14:37:38;;;;;;;;;;;;;;;11.80;62.54;99450.91;5255751;28;19946;-70
2022/11/05 14:40:32;;;;;;;;;;;;;;;11.97;62.35;99458.19;5275879;28;19920;-69
2022/11/05 14:43:24;;;;;;;;;;;;;;;11.81;62.28;99460.56;5284967;28;19931;-71
2022/11/05 14:46:14;;;;;;;;;;;;;;;11.90;62.73;99455.25;5267003;28;19944;-72
2022/11/05 14:49:05;;;;;;;;;;;;;;;12.14;62.87;99453.97;5263267;28;19982;-71
2022/11/05 14:52:03;;;;;;;;;;;;;;;11.98;62.48;99466.00;5247796;28;19942;-72
2022/11/05 14:54:55;;;;;;;;;;;;;;;11.62;63.83;99464.91;5269532;28;19973;-70
2022/11/05 14:57:51;;;;;;;;;;;;;;;11.75;62.99;99465.47;5262071;28;19927;-71
2022/11/05 15:00:42;;;;;;;;;;;;;;;12.01;63.49;99466.72;5277685;28;20305;-72
2022/11/05 15:03:38;;;;;;;;;;;;;;;11.59;63.51;99478.44;5272906;28;20094;-74
2022/11/05 15:06:35;;;;;;;;;;;;;;;11.59;64.77;99470.47;5275607;28;19926;-71
2022/11/05 15:09:45;;;;;;;;;;;;;;;11.74;64.33;99481.53;5268810;28;20440;-71
2022/11/05 15:12:40;;;;;;;;;;;;;;;11.90;63.94;99478.34;5270329;28;19926;-74
2022/11/05 15:15:39;;;;;;;;;;;;;;;12.04;64.35;99471.75;5273651;28;20444;-69
2022/11/05 15:18:35;;;;;;;;;;;;;;;12.09;63.21;99478.34;5273391;28;19920;-70
2022/11/05 15:21:28;;;;;;;;;;;;;;;11.97;63.76;99484.78;5270559;28;20305;-74
2022/11/05 15:24:26;;;;;;;;;;;;;;;12.02;63.60;99481.69;5260581;28;19927;-71
2022/11/05 15:27:21;;;;;;;;;;;;;;;11.74;63.87;99478.88;5254674;28;20068;-71
2022/11/05 15:30:16;;;;;;;;;;;;;;;11.65;64.66;99485.84;5276458;28;20069;-73
2022/11/05 15:33:17;;;;;;;;;;;;;;;11.68;64.49;99485.56;5242326;28;19927;-71
2022/11/05 15:36:21;;;;;;;;;;;;;;;11.44;64.88;99482.47;5242905;28;19967;-72
2022/11/05 15:39:27;;;;;;;;;;;;;;;11.27;65.83;99484.81;5261246;28;19985;-71
2022/11/05 15:42:20;;;;;;;;;;;;;;;11.60;64.18;99484.59;5253228;28;19926;-73
2022/11/05 15:45:18;;;;;;;;;;;;;;;11.42;65.37;99479.09;5278672;28;19927;-71
2022/11/05 15:48:12;;;;;;;;;;;;;;;11.11;65.56;99479.19;5270043;28;20297;-72
2022/11/05 15:51:02;;;;;;;;;;;;;;;11.16;65.45;99490.25;5256915;28;19926;-73
2022/11/05 15:53:54;;;;;;;;;;;;;;;11.55;65.00;99482.34;5251246;28;20364;-74